createdAt,value
2022-11-17T00:00:44.089Z,82.21
2022-11-17T00:02:46.435Z,82.08
2022-11-17T00:04:47.885Z,82.05
2022-11-17T00:06:49.336Z,82.25
2022-11-17T00:08:52.867Z,82.22
2022-11-17T00:10:54.237Z,82.44
2022-11-17T00:13:14.017Z,82.34
2022-11-17T00:15:16.123Z,81.77
2022-11-17T00:17:17.595Z,81.90
2022-11-17T00:19:37.624Z,82.02
2022-11-17T00:21:39.079Z,82.29
2022-11-17T00:23:50.213Z,81.69
2022-11-17T00:25:52.059Z,82.48
2022-11-17T00:27:53.661Z,82.60
2022-11-17T00:29:55.020Z,81.97
2022-11-17T00:32:15.436Z,82.25
2022-11-17T00:34:21.700Z,82.19
2022-11-17T00:36:25.612Z,82.35
2022-11-17T00:38:26.981Z,83.60
2022-11-17T00:40:28.816Z,83.75
2022-11-17T00:42:30.205Z,83.71
2022-11-17T00:44:31.580Z,84.75
2022-11-17T00:46:33.288Z,84.84
2022-11-17T00:48:34.622Z,85.54
2022-11-17T00:50:36.049Z,85.01
2022-11-17T00:52:37.446Z,85.57
2022-11-17T00:54:38.872Z,86.03
2022-11-17T00:56:40.863Z,85.39
2022-11-17T00:58:42.304Z,85.26
2022-11-17T01:00:43.643Z,86.02
2022-11-17T01:02:44.997Z,84.87
2022-11-17T01:04:46.423Z,85.13
2022-11-17T01:06:49.568Z,85.00
2022-11-17T01:08:51.023Z,84.18
2022-11-17T01:10:52.511Z,84.88
2022-11-17T01:12:53.889Z,84.63
2022-11-17T01:14:55.259Z,84.39
2022-11-17T01:16:56.704Z,84.70
2022-11-17T01:19:00.891Z,84.13
2022-11-17T01:21:11.451Z,84.38
2022-11-17T01:23:12.868Z,84.74
2022-11-17T01:25:14.282Z,84.08
2022-11-17T01:27:15.649Z,84.10
2022-11-17T01:29:18.060Z,84.26
2022-11-17T01:31:22.344Z,84.79
2022-11-17T01:33:23.732Z,84.11
2022-11-17T01:35:25.072Z,83.77
2022-11-17T01:37:27.034Z,84.05
2022-11-17T01:39:30.011Z,83.91
2022-11-17T01:41:31.361Z,83.63
2022-11-17T01:43:43.065Z,84.42
2022-11-17T01:45:44.712Z,84.08
2022-11-17T01:47:52.514Z,84.60
2022-11-17T01:50:00.468Z,84.26
2022-11-17T01:52:07.145Z,84.34
2022-11-17T01:54:11.025Z,84.05
2022-11-17T01:56:18.576Z,83.78
2022-11-17T01:58:32.882Z,84.23
2022-11-17T02:00:34.519Z,84.73
2022-11-17T02:02:38.084Z,83.73
2022-11-17T02:04:53.587Z,84.93
2022-11-17T02:07:21.659Z,85.40
2022-11-17T02:09:23.685Z,85.17
2022-11-17T02:11:26.959Z,84.54
2022-11-17T02:13:28.823Z,85.32
2022-11-17T02:15:30.378Z,87.16
2022-11-17T02:17:37.567Z,86.14
2022-11-17T02:19:41.848Z,85.95
2022-11-17T02:21:55.159Z,85.65
2022-11-17T02:24:19.952Z,86.71
2022-11-17T02:26:58.680Z,85.88
2022-11-17T02:29:00.065Z,86.10
2022-11-17T02:31:17.224Z,86.49
2022-11-17T02:33:37.591Z,88.00
2022-11-17T02:35:45.389Z,87.29
2022-11-17T02:38:07.699Z,87.00
2022-11-17T02:40:16.146Z,86.29
2022-11-17T02:42:47.594Z,86.96
2022-11-17T02:45:11.221Z,86.84
2022-11-17T02:47:20.270Z,87.54
2022-11-17T02:49:30.299Z,86.63
2022-11-17T02:51:34.650Z,87.54
2022-11-17T02:53:38.503Z,86.92
2022-11-17T02:55:40.201Z,86.24
2022-11-17T02:57:41.829Z,86.77
2022-11-17T02:59:48.177Z,86.58
2022-11-17T03:02:25.031Z,86.25
2022-11-17T03:04:31.876Z,86.92
2022-11-17T03:06:51.899Z,86.94
2022-11-17T03:09:06.136Z,87.85
2022-11-17T03:11:08.866Z,87.12
2022-11-17T03:13:21.157Z,87.84
2022-11-17T03:15:26.012Z,87.16
2022-11-17T03:17:29.711Z,87.73
2022-11-17T03:19:33.831Z,87.47
2022-11-17T03:21:45.137Z,87.62
2022-11-17T03:24:04.057Z,88.16
2022-11-17T03:26:09.673Z,88.35
2022-11-17T03:28:12.053Z,88.55
2022-11-17T03:30:14.878Z,88.48
2022-11-17T03:32:17.900Z,88.96
2022-11-17T03:34:24.360Z,88.63
2022-11-17T03:36:34.998Z,88.53
2022-11-17T03:38:42.106Z,89.26
2022-11-17T03:40:47.201Z,88.50
2022-11-17T03:42:53.954Z,88.38
2022-11-17T03:45:01.851Z,88.09
2022-11-17T03:47:06.626Z,88.38
2022-11-17T03:49:19.869Z,88.42
2022-11-17T03:51:25.849Z,88.65
2022-11-17T03:53:27.352Z,89.02
2022-11-17T03:55:36.476Z,89.16
2022-11-17T03:57:59.701Z,89.05
2022-11-17T04:00:07.545Z,89.51
2022-11-17T04:02:14.926Z,89.16
2022-11-17T04:04:20.103Z,88.64
2022-11-17T04:06:21.560Z,88.42
2022-11-17T04:08:25.830Z,88.41
2022-11-17T04:10:27.249Z,88.67
2022-11-17T04:12:47.050Z,89.32
2022-11-17T04:15:06.799Z,89.31
2022-11-17T04:17:08.395Z,89.72
2022-11-17T04:19:09.771Z,89.11
2022-11-17T04:21:11.106Z,90.12
2022-11-17T04:23:14.325Z,90.13
2022-11-17T04:25:35.781Z,90.03
2022-11-17T04:27:55.815Z,90.48
2022-11-17T04:29:57.147Z,89.54
2022-11-17T04:31:58.506Z,89.69
2022-11-17T04:34:02.149Z,90.02
2022-11-17T04:36:04.655Z,90.02
2022-11-17T04:38:06.019Z,89.94
2022-11-17T04:40:08.199Z,90.12
2022-11-17T04:42:09.540Z,89.75
2022-11-17T04:44:13.169Z,89.67
2022-11-17T04:46:15.912Z,89.67
2022-11-17T04:48:17.278Z,89.29
2022-11-17T04:50:18.617Z,89.84
2022-11-17T04:52:21.462Z,89.65
2022-11-17T04:54:26.190Z,90.07
2022-11-17T04:56:27.855Z,89.40
2022-11-17T04:58:29.376Z,90.09
2022-11-17T05:00:30.704Z,90.19
2022-11-17T05:02:32.141Z,90.33
2022-11-17T05:04:52.230Z,90.24
2022-11-17T05:06:53.628Z,89.86
2022-11-17T05:08:56.283Z,89.66
2022-11-17T05:11:17.015Z,89.46
2022-11-17T05:13:27.213Z,89.68
2022-11-17T05:15:47.222Z,89.79
2022-11-17T05:17:48.560Z,89.55
2022-11-17T05:19:50.005Z,89.07
2022-11-17T05:21:52.068Z,88.48
2022-11-17T05:23:56.092Z,88.33
2022-11-17T05:25:57.428Z,89.07
2022-11-17T05:27:58.766Z,88.58
2022-11-17T05:30:04.835Z,88.84
2022-11-17T05:32:06.158Z,88.16
2022-11-17T05:34:09.318Z,88.74
2022-11-17T05:36:11.268Z,89.08
2022-11-17T05:38:12.664Z,88.75
2022-11-17T05:40:14.108Z,88.57
2022-11-17T05:42:15.468Z,88.37
2022-11-17T05:44:16.893Z,89.41
2022-11-17T05:46:19.695Z,88.90
2022-11-17T05:48:21.220Z,89.55
2022-11-17T05:50:22.620Z,89.24
2022-11-17T05:52:23.971Z,89.20
2022-11-17T05:54:26.790Z,88.94
2022-11-17T05:56:31.565Z,88.57
2022-11-17T05:58:34.820Z,88.61
2022-11-17T06:00:39.838Z,88.32
2022-11-17T06:02:47.199Z,88.04
2022-11-17T06:04:51.577Z,88.34
2022-11-17T06:06:58.771Z,88.33
2022-11-17T06:09:00.270Z,88.14
2022-11-17T06:11:01.696Z,88.13
2022-11-17T06:13:03.265Z,88.11
2022-11-17T06:15:05.212Z,87.84
2022-11-17T06:17:21.886Z,87.02
2022-11-17T06:19:30.821Z,85.58
2022-11-17T06:22:04.527Z,86.85
2022-11-17T06:23:55.655Z,86.77
2022-11-17T06:25:59.387Z,87.62
2022-11-17T06:28:04.512Z,87.87
2022-11-17T06:30:06.830Z,88.45
2022-11-17T06:32:08.356Z,87.24
2022-11-17T06:34:10.077Z,88.76
2022-11-17T06:36:11.802Z,88.62
2022-11-17T06:38:13.328Z,89.19
2022-11-17T06:40:15.229Z,89.48
2022-11-17T06:42:16.580Z,89.93
2022-11-17T06:44:18.340Z,89.61
2022-11-17T06:46:19.715Z,89.78
2022-11-17T06:48:27.035Z,90.13
2022-11-17T06:50:28.511Z,90.38
2022-11-17T06:52:29.871Z,90.32
2022-11-17T06:54:31.224Z,90.18
2022-11-17T06:56:32.609Z,89.73
2022-11-17T06:58:35.690Z,90.79
2022-11-17T07:00:38.248Z,90.76
2022-11-17T07:02:39.667Z,90.38
2022-11-17T07:04:41.028Z,90.03
2022-11-17T07:06:42.370Z,90.10
2022-11-17T07:08:45.290Z,89.64
2022-11-17T07:10:49.468Z,89.71
2022-11-17T07:12:51.000Z,90.08
2022-11-17T07:14:52.484Z,90.72
2022-11-17T07:16:53.906Z,90.30
2022-11-17T07:18:55.399Z,90.17
2022-11-17T07:21:00.492Z,89.68
2022-11-17T07:23:01.848Z,90.44
2022-11-17T07:25:04.037Z,89.61
2022-11-17T07:27:06.449Z,90.12
2022-11-17T07:29:07.799Z,90.02
2022-11-17T07:31:09.643Z,89.47
2022-11-17T07:33:10.968Z,90.15
2022-11-17T07:35:12.367Z,90.08
2022-11-17T07:37:13.840Z,90.12
2022-11-17T07:39:21.069Z,90.72
2022-11-17T07:41:23.005Z,90.77
2022-11-17T07:43:24.383Z,91.68
2022-11-17T07:45:31.376Z,91.19
2022-11-17T07:47:33.537Z,91.37
2022-11-17T07:49:34.952Z,92.06
2022-11-17T07:51:36.297Z,91.88
2022-11-17T07:53:37.658Z,92.01
2022-11-17T07:55:39.052Z,91.70
2022-11-17T07:57:40.403Z,91.63
2022-11-17T07:59:41.739Z,91.90
2022-11-17T08:01:43.164Z,91.80
2022-11-17T08:03:44.563Z,91.64
2022-11-17T08:05:46.019Z,91.65
2022-11-17T08:07:55.372Z,90.71
2022-11-17T08:09:56.708Z,89.79
2022-11-17T08:11:59.232Z,89.89
2022-11-17T08:14:00.573Z,89.45
2022-11-17T08:16:02.548Z,88.55
2022-11-17T08:18:04.603Z,86.84
2022-11-17T08:20:06.382Z,88.53
2022-11-17T08:22:07.769Z,87.53
2022-11-17T08:24:09.292Z,87.67
2022-11-17T08:26:11.712Z,87.98
2022-11-17T08:28:13.097Z,87.15
2022-11-17T08:30:14.860Z,87.01
2022-11-17T08:32:16.355Z,87.44
2022-11-17T08:34:17.721Z,87.71
2022-11-17T08:36:19.112Z,86.39
2022-11-17T08:38:20.465Z,86.51
2022-11-17T08:40:22.150Z,86.81
2022-11-17T08:42:23.663Z,87.00
2022-11-17T08:44:25.070Z,87.34
2022-11-17T08:46:27.002Z,86.83
2022-11-17T08:48:29.520Z,86.19
2022-11-17T08:50:30.911Z,85.89
2022-11-17T08:52:32.716Z,86.49
2022-11-17T08:54:34.174Z,86.49
2022-11-17T08:56:35.507Z,86.77
2022-11-17T08:58:44.506Z,85.70
2022-11-17T09:00:47.266Z,85.69
2022-11-17T09:02:49.134Z,85.77
2022-11-17T09:04:50.607Z,86.13
2022-11-17T09:06:52.018Z,85.47
2022-11-17T09:08:54.760Z,85.53
2022-11-17T09:10:56.423Z,85.00
2022-11-17T09:12:58.472Z,85.20
2022-11-17T09:14:59.810Z,85.90
2022-11-17T09:17:01.174Z,85.40
2022-11-17T09:19:02.968Z,85.91
2022-11-17T09:21:08.023Z,85.52
2022-11-17T09:23:09.394Z,87.29
2022-11-17T09:25:13.580Z,86.95
2022-11-17T09:27:15.191Z,86.06
2022-11-17T09:29:17.043Z,86.08
2022-11-17T09:31:20.875Z,86.41
2022-11-17T09:33:22.342Z,87.16
2022-11-17T09:35:23.738Z,86.73
2022-11-17T09:37:26.404Z,85.75
2022-11-17T09:39:27.815Z,87.17
2022-11-17T09:41:48.750Z,85.91
2022-11-17T09:43:59.346Z,84.40
2022-11-17T09:46:13.080Z,84.78
2022-11-17T09:48:40.635Z,84.87
2022-11-17T09:50:44.980Z,82.51
2022-11-17T09:52:58.655Z,83.58
2022-11-17T09:55:20.395Z,83.67
2022-11-17T09:57:38.487Z,84.38
2022-11-17T09:59:39.946Z,82.23
2022-11-17T10:01:41.609Z,83.52
2022-11-17T10:03:46.192Z,84.89
2022-11-17T10:05:48.781Z,84.49
2022-11-17T10:07:52.372Z,83.31
2022-11-17T10:09:55.213Z,83.36
2022-11-17T10:12:12.943Z,83.74
2022-11-17T10:14:20.472Z,83.04
2022-11-17T10:16:21.948Z,84.10
2022-11-17T10:18:23.339Z,83.89
2022-11-17T10:20:25.067Z,82.68
2022-11-17T10:22:37.061Z,84.16
2022-11-17T10:24:42.616Z,83.48
2022-11-17T10:26:47.441Z,84.23
2022-11-17T10:29:08.556Z,82.56
2022-11-17T10:31:14.341Z,83.44
2022-11-17T10:33:15.737Z,82.47
2022-11-17T10:35:24.503Z,81.84
2022-11-17T10:37:30.205Z,82.27
2022-11-17T10:39:38.466Z,80.93
2022-11-17T10:41:42.706Z,81.60
2022-11-17T10:44:13.665Z,80.77
2022-11-17T10:46:17.013Z,80.48
2022-11-17T10:48:26.175Z,80.02
2022-11-17T10:50:27.904Z,79.54
2022-11-17T10:52:29.302Z,79.68
2022-11-17T10:54:30.883Z,80.05
2022-11-17T10:56:40.422Z,79.64
2022-11-17T10:58:56.151Z,80.68
2022-11-17T11:01:04.141Z,79.87
2022-11-17T11:03:16.276Z,79.21
2022-11-17T11:05:19.760Z,79.19
2022-11-17T11:07:23.360Z,78.62
2022-11-17T11:09:26.539Z,78.79
2022-11-17T11:11:36.267Z,78.47
2022-11-17T11:13:48.447Z,78.14
2022-11-17T11:15:49.948Z,76.95
2022-11-17T11:17:51.669Z,77.89
2022-11-17T11:19:54.199Z,78.17
2022-11-17T11:22:18.317Z,79.92
2022-11-17T11:24:48.723Z,79.03
2022-11-17T11:27:27.806Z,79.68
2022-11-17T11:29:56.538Z,80.00
2022-11-17T11:32:23.294Z,79.41
2022-11-17T11:34:47.212Z,79.89
2022-11-17T11:37:12.668Z,80.56
2022-11-17T11:39:42.032Z,79.93
2022-11-17T11:42:09.551Z,79.57
2022-11-17T11:44:30.975Z,80.37
2022-11-17T11:46:46.786Z,80.61
2022-11-17T11:48:52.101Z,79.33
2022-11-17T11:51:09.677Z,80.35
2022-11-17T11:53:27.048Z,81.11
2022-11-17T11:55:35.144Z,80.26
2022-11-17T11:57:42.819Z,79.67
2022-11-17T12:00:03.783Z,79.20
2022-11-17T12:02:18.490Z,79.79
2022-11-17T12:04:32.722Z,79.95
2022-11-17T12:06:53.739Z,79.21
2022-11-17T12:09:07.061Z,78.25
2022-11-17T12:11:34.716Z,78.31
2022-11-17T12:13:45.331Z,79.39
2022-11-17T12:15:48.775Z,79.60
2022-11-17T12:17:56.857Z,78.55
2022-11-17T12:20:07.618Z,75.95
2022-11-17T12:22:41.454Z,76.83
2022-11-17T12:24:42.868Z,78.46
2022-11-17T12:26:44.307Z,75.40
2022-11-17T12:28:46.046Z,76.41
2022-11-17T12:30:47.327Z,76.84
2022-11-17T12:32:48.641Z,75.73
2022-11-17T12:35:25.259Z,76.54
2022-11-17T12:37:26.838Z,77.48
2022-11-17T12:40:02.132Z,76.12
2022-11-17T12:42:05.316Z,74.95
2022-11-17T12:44:37.853Z,74.58
2022-11-17T12:46:40.138Z,74.29
2022-11-17T12:48:52.780Z,74.48
2022-11-17T12:51:04.612Z,74.11
2022-11-17T12:53:17.106Z,76.47
2022-11-17T12:55:18.411Z,75.08
2022-11-17T12:57:32.891Z,74.14
2022-11-17T13:00:07.691Z,73.96
2022-11-17T13:02:40.542Z,74.55
2022-11-17T13:04:55.174Z,72.16
2022-11-17T13:07:05.689Z,71.57
2022-11-17T13:09:11.797Z,72.54
2022-11-17T13:11:17.550Z,72.39
2022-11-17T13:13:21.766Z,73.83
2022-11-17T13:15:23.917Z,73.89
2022-11-17T13:17:30.501Z,72.16
2022-11-17T13:19:41.238Z,73.42
2022-11-17T13:21:45.331Z,73.71
2022-11-17T13:23:46.685Z,73.22
2022-11-17T13:25:49.077Z,73.32
2022-11-17T13:27:56.097Z,72.98
2022-11-17T13:30:21.838Z,72.09
2022-11-17T13:32:28.272Z,73.38
2022-11-17T13:34:30.109Z,74.25
2022-11-17T13:36:31.727Z,73.37
2022-11-17T13:38:33.177Z,75.34
2022-11-17T13:40:37.044Z,75.56
2022-11-17T13:42:38.570Z,75.74
2022-11-17T13:44:40.052Z,73.29
2022-11-17T13:46:41.554Z,74.60
2022-11-17T13:48:45.487Z,75.90
2022-11-17T13:50:46.876Z,74.85
2022-11-17T13:52:57.930Z,76.22
2022-11-17T13:54:59.742Z,74.36
2022-11-17T13:57:07.826Z,74.48
2022-11-17T13:59:18.305Z,73.09
2022-11-17T14:01:29.129Z,73.51
2022-11-17T14:03:41.563Z,74.69
2022-11-17T14:05:57.452Z,72.69
2022-11-17T14:08:10.596Z,74.53
2022-11-17T14:10:14.641Z,75.06
2022-11-17T14:12:16.840Z,74.38
2022-11-17T14:14:38.408Z,73.60
2022-11-17T14:16:41.318Z,73.91
2022-11-17T14:18:42.789Z,73.21
2022-11-17T14:20:44.262Z,75.46
2022-11-17T14:23:08.500Z,76.92
2022-11-17T14:25:12.566Z,75.44
2022-11-17T14:27:36.377Z,74.80
2022-11-17T14:29:37.753Z,75.66
2022-11-17T14:31:39.122Z,74.79
2022-11-17T14:33:40.834Z,73.93
2022-11-17T14:35:43.264Z,74.16
2022-11-17T14:37:44.717Z,75.41
2022-11-17T14:39:46.090Z,74.31
2022-11-17T14:41:49.646Z,74.87
2022-11-17T14:43:51.234Z,75.09
2022-11-17T14:45:52.690Z,74.61
2022-11-17T14:47:54.056Z,74.52
2022-11-17T14:49:55.405Z,76.29
2022-11-17T14:51:59.059Z,75.97
2022-11-17T14:54:00.509Z,74.78
2022-11-17T14:56:09.177Z,76.43
2022-11-17T14:58:10.548Z,75.40
2022-11-17T15:00:18.851Z,76.03
2022-11-17T15:02:21.758Z,77.87
2022-11-17T15:06:44.627Z,76.67
2022-11-17T15:08:45.975Z,77.29
2022-11-17T15:10:47.439Z,76.24
2022-11-17T15:12:48.808Z,76.37
2022-11-17T15:14:50.176Z,77.98
2022-11-17T15:16:51.596Z,78.74
2022-11-17T15:18:52.964Z,76.24
2022-11-17T15:21:05.351Z,77.12
2022-11-17T15:23:06.794Z,75.83
2022-11-17T15:25:08.680Z,77.79
2022-11-17T15:27:10.505Z,76.34
2022-11-17T15:29:18.018Z,77.03
2022-11-17T15:31:20.139Z,77.95
2022-11-17T15:33:21.621Z,78.42
2022-11-17T15:35:23.032Z,78.64
2022-11-17T15:37:24.561Z,79.26
2022-11-17T15:39:25.928Z,77.79
2022-11-17T15:41:31.431Z,78.27
2022-11-17T15:43:36.932Z,77.56
2022-11-17T15:45:38.349Z,78.58
2022-11-17T15:47:39.697Z,77.94
2022-11-17T15:49:41.031Z,79.22
2022-11-17T15:51:42.399Z,78.06
2022-11-17T15:53:44.914Z,79.48
2022-11-17T15:55:46.265Z,80.06
2022-11-17T15:57:47.613Z,80.68
2022-11-17T15:59:49.027Z,80.79
2022-11-17T16:01:50.365Z,80.57
2022-11-17T16:03:52.714Z,80.01
2022-11-17T16:05:54.119Z,78.95
2022-11-17T16:07:55.700Z,81.11
2022-11-17T16:09:57.151Z,80.15
2022-11-17T16:11:58.684Z,81.87
2022-11-17T16:14:00.805Z,82.00
2022-11-17T16:16:02.602Z,82.44
2022-11-17T16:18:04.011Z,82.36
2022-11-17T16:20:06.046Z,82.23
2022-11-17T16:22:07.425Z,82.42
2022-11-17T16:24:11.511Z,81.81
2022-11-17T16:26:14.927Z,79.54
2022-11-17T16:28:16.921Z,80.53
2022-11-17T16:30:18.283Z,81.78
2022-11-17T16:32:19.628Z,79.49
2022-11-17T16:34:21.834Z,79.18
2022-11-17T16:36:25.821Z,78.65
2022-11-17T16:38:27.638Z,78.97
2022-11-17T16:40:29.649Z,80.13
2022-11-17T16:42:32.423Z,81.09
2022-11-17T16:44:34.415Z,81.98
2022-11-17T16:46:35.825Z,81.69
2022-11-17T16:48:37.274Z,79.81
2022-11-17T16:50:40.207Z,80.08
2022-11-17T16:52:41.779Z,79.80
2022-11-17T16:54:43.116Z,79.01
2022-11-17T16:56:44.601Z,79.20
2022-11-17T16:58:48.972Z,78.72
2022-11-17T17:00:50.313Z,79.28
2022-11-17T17:02:51.820Z,79.24
2022-11-17T17:04:53.218Z,80.41
2022-11-17T17:06:54.827Z,78.83
2022-11-17T17:08:58.227Z,79.81
2022-11-17T17:11:07.915Z,79.61
2022-11-17T17:13:09.294Z,80.02
2022-11-17T17:15:10.865Z,80.48
2022-11-17T17:17:12.233Z,80.15
2022-11-17T17:19:15.757Z,80.21
2022-11-17T17:21:18.916Z,80.34
2022-11-17T17:23:20.297Z,80.19
2022-11-17T17:25:21.658Z,80.15
2022-11-17T17:27:23.087Z,79.96
2022-11-17T17:29:24.476Z,80.13
2022-11-17T17:31:29.266Z,79.90
2022-11-17T17:33:32.404Z,80.50
2022-11-17T17:35:34.643Z,80.12
2022-11-17T17:37:35.980Z,80.30
2022-11-17T17:39:37.842Z,80.10
2022-11-17T17:41:40.742Z,80.03
2022-11-17T17:43:43.169Z,80.89
2022-11-17T17:45:44.550Z,79.19
2022-11-17T17:47:45.885Z,80.01
2022-11-17T17:49:47.226Z,79.48
2022-11-17T17:51:48.717Z,78.46
2022-11-17T17:53:50.290Z,79.52
2022-11-17T17:55:51.708Z,79.36
2022-11-17T17:57:53.227Z,79.27
2022-11-17T17:59:54.593Z,79.60
2022-11-17T18:01:56.004Z,78.59
2022-11-17T18:04:01.197Z,79.40
2022-11-17T18:06:02.729Z,77.94
2022-11-17T18:08:04.708Z,78.46
2022-11-17T18:10:06.510Z,79.31
2022-11-17T18:12:12.332Z,80.13
2022-11-17T18:14:13.873Z,79.87
2022-11-17T18:16:23.624Z,79.04
2022-11-17T18:18:25.128Z,80.25
2022-11-17T18:20:26.502Z,80.25
2022-11-17T18:22:27.826Z,80.61
2022-11-17T18:24:29.195Z,81.83
2022-11-17T18:26:33.254Z,81.30
2022-11-17T18:28:34.696Z,82.17
2022-11-17T18:30:36.034Z,81.48
2022-11-17T18:32:37.560Z,81.88
2022-11-17T18:34:41.682Z,82.20
2022-11-17T18:36:43.078Z,82.64
2022-11-17T18:38:44.769Z,83.23
2022-11-17T18:40:46.195Z,84.02
2022-11-17T18:42:47.573Z,84.65
2022-11-17T18:44:50.757Z,83.97
2022-11-17T18:46:52.313Z,83.65
2022-11-17T18:48:55.749Z,84.55
2022-11-17T18:51:18.322Z,84.27
2022-11-17T18:53:18.416Z,85.11
2022-11-17T18:55:22.341Z,84.97
2022-11-17T18:57:23.795Z,83.75
2022-11-17T18:59:25.144Z,83.80
2022-11-17T19:01:28.566Z,84.81
2022-11-17T19:03:29.987Z,84.77
2022-11-17T19:05:34.657Z,84.90
2022-11-17T19:07:36.043Z,85.15
2022-11-17T19:09:37.512Z,86.21
2022-11-17T19:11:39.253Z,86.21
2022-11-17T19:13:42.112Z,87.10
2022-11-17T19:15:43.484Z,87.61
2022-11-17T19:17:44.842Z,87.00
2022-11-17T19:19:46.235Z,87.79
2022-11-17T19:21:47.614Z,87.83
2022-11-17T19:23:51.805Z,88.42
2022-11-17T19:25:53.737Z,89.12
2022-11-17T19:27:55.063Z,88.74
2022-11-17T19:29:56.470Z,89.15
2022-11-17T19:31:57.814Z,88.73
2022-11-17T19:33:59.268Z,89.23
2022-11-17T19:36:09.411Z,89.06
2022-11-17T19:38:10.743Z,88.59
2022-11-17T19:40:12.236Z,89.34
2022-11-17T19:42:13.616Z,89.69
2022-11-17T19:44:15.100Z,89.20
2022-11-17T19:46:17.100Z,89.59
2022-11-17T19:48:23.878Z,88.84
2022-11-17T19:50:25.477Z,89.01
2022-11-17T19:52:27.123Z,88.73
2022-11-17T19:54:28.507Z,88.72
2022-11-17T19:56:30.420Z,89.17
2022-11-17T19:58:31.783Z,88.77
2022-11-17T20:07:48.792Z,88.89
2022-11-17T20:09:50.135Z,89.44
2022-11-17T20:11:51.479Z,88.94
2022-11-17T20:13:54.254Z,89.19
2022-11-17T20:15:57.280Z,89.54
2022-11-17T20:17:58.669Z,89.39
2022-11-17T20:20:00.065Z,88.68
2022-11-17T20:22:01.433Z,89.14
2022-11-17T20:24:03.191Z,88.48
2022-11-17T20:26:10.332Z,89.62
2022-11-17T20:28:12.215Z,89.13
2022-11-17T20:30:15.341Z,88.89
2022-11-17T20:32:17.331Z,89.40
2022-11-17T20:34:19.314Z,89.33
2022-11-17T20:36:21.502Z,89.84
2022-11-17T20:38:22.823Z,89.75
2022-11-17T20:40:24.155Z,89.71
2022-11-17T20:42:25.527Z,89.69
2022-11-17T20:44:27.503Z,88.97
2022-11-17T20:46:29.194Z,88.78
2022-11-17T20:48:32.345Z,87.70
2022-11-17T20:50:33.751Z,87.69
2022-11-17T20:52:35.319Z,87.71
2022-11-17T20:54:36.689Z,88.49
2022-11-17T20:56:38.053Z,87.86
2022-11-17T20:58:40.351Z,87.59
2022-11-17T21:00:41.757Z,88.13
2022-11-17T21:02:43.128Z,88.46
2022-11-17T21:04:48.185Z,88.39
2022-11-17T21:06:49.588Z,88.36
2022-11-17T21:08:51.745Z,88.50
2022-11-17T21:11:04.285Z,88.33
2022-11-17T21:13:05.639Z,88.60
2022-11-17T21:15:07.495Z,88.17
2022-11-17T21:17:28.866Z,88.62
2022-11-17T21:19:31.700Z,88.87
2022-11-17T21:21:35.968Z,88.52
2022-11-17T21:23:39.402Z,88.78
2022-11-17T21:25:40.757Z,88.51
2022-11-17T21:27:42.112Z,88.59
2022-11-17T21:29:43.502Z,88.40
2022-11-17T21:31:44.845Z,88.52
2022-11-17T21:33:46.583Z,88.49
2022-11-17T21:35:47.969Z,88.31
2022-11-17T21:37:49.329Z,89.21
2022-11-17T21:39:52.100Z,89.20
2022-11-17T21:41:53.431Z,89.80
2022-11-17T21:43:58.037Z,89.60
2022-11-17T21:46:02.569Z,89.77
2022-11-17T21:48:04.205Z,89.41
2022-11-17T21:50:06.284Z,89.48
2022-11-17T21:52:07.769Z,89.28
2022-11-17T21:54:09.918Z,89.01
2022-11-17T21:56:11.904Z,88.94
2022-11-17T21:58:13.300Z,88.97
2022-11-17T22:00:16.363Z,89.42
2022-11-17T22:02:17.917Z,89.21
2022-11-17T22:04:23.951Z,89.47
2022-11-17T22:06:26.342Z,89.76
2022-11-17T22:08:27.883Z,90.14
2022-11-17T22:10:29.220Z,90.46
2022-11-17T22:12:30.554Z,89.73
2022-11-17T22:14:32.047Z,89.83
2022-11-17T22:16:34.265Z,90.35
2022-11-17T22:18:35.721Z,90.11
2022-11-17T22:20:37.836Z,90.31
2022-11-17T22:22:39.211Z,90.30
2022-11-17T22:24:42.376Z,89.48
2022-11-17T22:26:46.249Z,89.94
2022-11-17T22:28:55.285Z,89.73
2022-11-17T22:30:57.132Z,89.48
2022-11-17T22:32:58.917Z,89.30
2022-11-17T22:35:01.641Z,89.42
2022-11-17T22:37:03.022Z,89.34
2022-11-17T22:39:05.241Z,89.80
2022-11-17T22:41:08.571Z,90.27
2022-11-17T22:43:14.614Z,89.57
2022-11-17T22:45:16.744Z,89.76
2022-11-17T22:47:18.086Z,90.55
2022-11-17T22:49:19.651Z,89.83
2022-11-17T22:51:40.021Z,89.81
2022-11-17T22:53:41.545Z,90.76
2022-11-17T22:55:42.944Z,89.99
2022-11-17T22:57:44.335Z,90.26
2022-11-17T22:59:45.685Z,90.83
2022-11-17T23:01:47.046Z,91.06
2022-11-17T23:03:48.594Z,91.88
2022-11-17T23:05:50.064Z,92.13
2022-11-17T23:07:51.421Z,91.48
2022-11-17T23:09:52.787Z,91.67
2022-11-17T23:11:54.127Z,92.78
2022-11-17T23:13:55.474Z,92.27
2022-11-17T23:15:57.504Z,92.87
2022-11-17T23:17:59.047Z,91.62
2022-11-17T23:20:00.476Z,91.93
2022-11-17T23:22:01.826Z,92.24
2022-11-17T23:24:04.246Z,92.03
2022-11-17T23:26:11.791Z,93.01
2022-11-17T23:28:17.597Z,93.14
2022-11-17T23:30:18.934Z,92.56
2022-11-17T23:32:21.487Z,93.02
2022-11-17T23:34:22.893Z,93.43
2022-11-17T23:36:24.472Z,92.43
2022-11-17T23:38:25.957Z,93.30
2022-11-17T23:40:27.334Z,93.08
2022-11-17T23:42:32.417Z,93.22
2022-11-17T23:44:34.728Z,92.58
2022-11-17T23:46:36.464Z,92.66
2022-11-17T23:48:38.008Z,93.72
2022-11-17T23:50:39.360Z,92.77
2022-11-17T23:52:40.784Z,93.01
2022-11-17T23:54:42.123Z,94.17
2022-11-17T23:56:43.527Z,93.89
2022-11-17T23:58:44.971Z,93.56
